createdAt,value
2018-10-03T00:00:16.746Z,97869.88
2018-10-03T00:02:45.916Z,97880.41
2018-10-03T00:05:14.504Z,97879.31
2018-10-03T00:07:43.113Z,97879.44
2018-10-03T00:10:12.811Z,97878.88
2018-10-03T00:12:41.469Z,97880.81
2018-10-03T00:15:10.136Z,97889.66
2018-10-03T00:17:38.904Z,97898.59
2018-10-03T00:20:07.572Z,97905.55
2018-10-03T00:22:36.171Z,97914.25
2018-10-03T00:25:04.786Z,97911.50
2018-10-03T00:27:33.430Z,97913.17
2018-10-03T00:30:02.019Z,97923.14
2018-10-03T00:32:30.643Z,97914.69
2018-10-03T00:34:59.250Z,97919.27
2018-10-03T00:37:27.808Z,97911.84
2018-10-03T00:39:56.547Z,97910.51
2018-10-03T00:42:25.123Z,97909.91
2018-10-03T00:44:53.724Z,97917.26
2018-10-03T00:47:22.400Z,97918.09
2018-10-03T00:49:51.036Z,97909.67
2018-10-03T00:52:19.697Z,97901.75
2018-10-03T00:54:48.383Z,97896.73
2018-10-03T00:57:16.975Z,97888.89
2018-10-03T00:59:45.712Z,97883.84
2018-10-03T01:02:14.564Z,97882.70
2018-10-03T01:04:43.155Z,97878.44
2018-10-03T01:07:12.031Z,97875.91
2018-10-03T01:09:40.697Z,97890.14
2018-10-03T01:12:09.276Z,97891.81
2018-10-03T01:14:37.840Z,97892.14
2018-10-03T01:17:06.747Z,97896.80
2018-10-03T01:19:35.359Z,97889.43
2018-10-03T01:22:03.944Z,97890.78
2018-10-03T01:24:32.639Z,97891.55
2018-10-03T01:27:01.268Z,97880.75
2018-10-03T01:29:29.838Z,97883.41
2018-10-03T01:31:58.468Z,97882.83
2018-10-03T01:34:27.508Z,97884.35
2018-10-03T01:36:56.088Z,97881.81
2018-10-03T01:39:24.728Z,97868.66
2018-10-03T01:41:53.379Z,97865.91
2018-10-03T01:44:22.045Z,97873.42
2018-10-03T01:46:50.671Z,97880.17
2018-10-03T01:49:19.249Z,97879.33
2018-10-03T01:51:47.952Z,97882.70
2018-10-03T01:54:16.628Z,97880.86
2018-10-03T01:56:45.630Z,97878.94
2018-10-03T01:59:14.632Z,97877.22
2018-10-03T02:01:43.605Z,97902.83
2018-10-03T02:04:12.193Z,97903.77
2018-10-03T02:06:40.765Z,97894.28
2018-10-03T02:09:09.463Z,97891.16
2018-10-03T02:11:38.071Z,97893.48
2018-10-03T02:14:06.755Z,97896.56
2018-10-03T02:16:35.784Z,97899.98
2018-10-03T02:19:04.447Z,97900.10
2018-10-03T02:21:33.007Z,97901.64
2018-10-03T02:24:02.084Z,97905.14
2018-10-03T02:26:30.672Z,97914.52
2018-10-03T02:28:59.291Z,97907.93
2018-10-03T02:31:27.900Z,97901.09
2018-10-03T02:33:56.528Z,97894.68
2018-10-03T02:36:25.100Z,97897.55
2018-10-03T02:38:53.741Z,97901.16
2018-10-03T02:41:22.324Z,97903.55
2018-10-03T02:43:51.413Z,97903.30
2018-10-03T02:46:20.040Z,97901.98
2018-10-03T02:48:48.775Z,97896.84
2018-10-03T02:51:17.382Z,97900.59
2018-10-03T02:53:46.436Z,97901.55
2018-10-03T02:56:15.044Z,97892.44
2018-10-03T02:58:43.655Z,97889.72
2018-10-03T03:01:12.361Z,97894.52
2018-10-03T03:03:40.956Z,97880.32
2018-10-03T03:06:10.124Z,97883.98
2018-10-03T03:08:39.074Z,97884.45
2018-10-03T03:11:07.836Z,97892.70
2018-10-03T03:13:36.431Z,97897.72
2018-10-03T03:16:05.063Z,97900.88
2018-10-03T03:18:33.788Z,97903.82
2018-10-03T03:21:02.912Z,97909.30
2018-10-03T03:23:31.695Z,97914.23
2018-10-03T03:26:00.315Z,97907.08
2018-10-03T03:28:28.897Z,97913.07
2018-10-03T03:30:57.595Z,97917.16
2018-10-03T03:33:26.558Z,97910.31
2018-10-03T03:35:55.151Z,97916.45
2018-10-03T03:38:23.809Z,97910.27
2018-10-03T03:40:52.494Z,97910.05
2018-10-03T03:43:21.079Z,97900.27
2018-10-03T03:45:49.759Z,97917.44
2018-10-03T03:48:18.385Z,97919.34
2018-10-03T03:50:46.975Z,97918.17
2018-10-03T03:53:15.656Z,97917.01
2018-10-03T03:55:44.636Z,97923.98
2018-10-03T03:58:13.487Z,97919.80
2018-10-03T04:00:42.120Z,97919.78
2018-10-03T04:03:11.135Z,97923.91
2018-10-03T04:05:39.823Z,97937.20
2018-10-03T04:08:09.526Z,97929.09
2018-10-03T04:10:38.169Z,97936.27
2018-10-03T04:13:06.772Z,97940.61
2018-10-03T04:15:35.520Z,97945.41
2018-10-03T04:18:04.084Z,97934.59
2018-10-03T04:20:32.669Z,97938.84
2018-10-03T04:23:01.313Z,97939.66
2018-10-03T04:25:30.268Z,97939.28
2018-10-03T04:27:58.861Z,97941.53
2018-10-03T04:30:27.539Z,97943.02
2018-10-03T04:32:56.110Z,97939.22
2018-10-03T04:35:25.195Z,97943.33
2018-10-03T04:37:53.795Z,97949.84
2018-10-03T04:40:22.441Z,97952.81
2018-10-03T04:42:51.007Z,97944.35
2018-10-03T04:45:19.900Z,97911.86
2018-10-03T04:47:48.488Z,97919.45
2018-10-03T04:50:17.068Z,97926.41
2018-10-03T04:52:45.832Z,97925.83
2018-10-03T04:55:14.445Z,97923.48
2018-10-03T04:57:43.052Z,97918.87
2018-10-03T05:00:12.052Z,97927.07
2018-10-03T05:02:40.612Z,97933.43
2018-10-03T05:05:09.195Z,97934.50
2018-10-03T05:07:37.896Z,97931.28
2018-10-03T05:10:06.664Z,97936.80
2018-10-03T05:12:35.280Z,97943.84
2018-10-03T05:15:04.311Z,97945.63
2018-10-03T05:17:32.887Z,97946.47
2018-10-03T05:20:01.593Z,97947.14
2018-10-03T05:22:30.183Z,97952.47
2018-10-03T05:24:58.809Z,97958.61
2018-10-03T05:27:27.451Z,97961.16
2018-10-03T05:29:56.285Z,97961.27
2018-10-03T05:32:24.847Z,97964.09
2018-10-03T05:34:53.451Z,97966.43
2018-10-03T05:37:22.675Z,97970.33
2018-10-03T05:39:51.249Z,97979.66
2018-10-03T05:42:19.842Z,97981.99
2018-10-03T05:44:48.587Z,97980.65
2018-10-03T05:47:17.242Z,97986.38
2018-10-03T05:49:46.430Z,97993.68
2018-10-03T05:52:15.268Z,97992.31
2018-10-03T05:54:43.863Z,97989.56
2018-10-03T05:57:12.432Z,97990.94
2018-10-03T05:59:41.167Z,97986.86
2018-10-03T06:02:09.737Z,97987.84
2018-10-03T06:04:38.356Z,97992.75
2018-10-03T06:07:07.059Z,97991.45
2018-10-03T06:09:35.672Z,97991.13
2018-10-03T06:12:04.300Z,97996.64
2018-10-03T06:14:33.428Z,98003.23
2018-10-03T06:17:02.020Z,98010.34
2018-10-03T06:19:30.600Z,98010.73
2018-10-03T06:21:59.351Z,98018.49
2018-10-03T06:24:27.963Z,98018.82
2018-10-03T06:26:56.544Z,98025.58
2018-10-03T06:29:25.324Z,98023.36
2018-10-03T06:31:53.884Z,98033.14
2018-10-03T06:34:22.588Z,98032.23
2018-10-03T06:36:51.219Z,98044.45
2018-10-03T06:39:19.840Z,98040.08
2018-10-03T06:41:48.414Z,98049.40
2018-10-03T06:44:17.023Z,98056.00
2018-10-03T06:46:45.605Z,98065.07
2018-10-03T06:49:14.328Z,98061.76
2018-10-03T06:51:43.037Z,98061.19
2018-10-03T06:54:11.601Z,98071.93
2018-10-03T06:56:40.348Z,98072.30
2018-10-03T06:59:09.114Z,98073.77
2018-10-03T07:01:37.712Z,98075.14
2018-10-03T07:04:06.908Z,98084.78
2018-10-03T07:06:35.629Z,98089.29
2018-10-03T07:09:05.319Z,98092.33
2018-10-03T07:11:33.876Z,98091.39
2018-10-03T07:14:02.535Z,98086.91
2018-10-03T07:16:31.494Z,98084.70
2018-10-03T07:19:00.353Z,98083.93
2018-10-03T07:21:28.972Z,98092.48
2018-10-03T07:23:57.521Z,98101.25
2018-10-03T07:26:26.104Z,98102.39
2018-10-03T07:28:54.759Z,98111.73
2018-10-03T07:31:23.343Z,98111.73
2018-10-03T07:33:52.040Z,98118.42
2018-10-03T07:36:20.754Z,98126.45
2018-10-03T07:38:49.354Z,98134.41
2018-10-03T07:41:17.935Z,98132.95
2018-10-03T07:43:46.635Z,98133.98
2018-10-03T07:46:15.188Z,98125.32
2018-10-03T07:48:43.911Z,98124.55
2018-10-03T07:51:12.548Z,98129.88
2018-10-03T07:53:41.167Z,98131.22
2018-10-03T07:56:10.195Z,98130.65
2018-10-03T07:58:38.924Z,98127.91
2018-10-03T08:01:07.645Z,98131.69
2018-10-03T08:03:36.217Z,98121.20
2018-10-03T08:06:05.216Z,98117.14
2018-10-03T08:08:34.161Z,98117.27
2018-10-03T08:11:02.836Z,98111.89
2018-10-03T08:13:32.093Z,98110.63
2018-10-03T08:16:00.716Z,98113.91
2018-10-03T08:18:29.300Z,98106.45
2018-10-03T08:20:57.908Z,98113.80
2018-10-03T08:23:26.481Z,98127.10
2018-10-03T08:25:55.092Z,98126.95
2018-10-03T08:28:23.967Z,98137.80
2018-10-03T08:30:52.639Z,98134.30
2018-10-03T08:33:21.705Z,98146.70
2018-10-03T08:35:50.775Z,98149.53
2018-10-03T08:38:19.378Z,98141.80
2018-10-03T08:40:47.980Z,98147.08
2018-10-03T08:43:16.637Z,98144.06
2018-10-03T08:45:45.208Z,98145.38
2018-10-03T08:48:13.796Z,98153.30
2018-10-03T08:50:42.401Z,98152.88
2018-10-03T08:53:10.955Z,98146.97
2018-10-03T08:55:39.532Z,98146.98
2018-10-03T08:58:08.298Z,98154.30
2018-10-03T09:00:37.236Z,98152.50
2018-10-03T09:03:05.913Z,98149.37
2018-10-03T09:05:34.622Z,98143.17
2018-10-03T09:08:09.012Z,98140.75
2018-10-03T09:10:37.820Z,98139.70
2018-10-03T09:13:06.379Z,98140.83
2018-10-03T09:15:35.011Z,98148.58
2018-10-03T09:18:04.039Z,98148.50
2018-10-03T09:20:32.612Z,98142.84
2018-10-03T09:23:01.189Z,98150.86
2018-10-03T09:25:29.905Z,98156.84
2018-10-03T09:27:58.497Z,98162.18
2018-10-03T09:30:27.076Z,98166.61
2018-10-03T09:32:55.762Z,98161.23
2018-10-03T09:35:24.344Z,98163.20
2018-10-03T09:37:52.933Z,98166.12
2018-10-03T09:40:21.676Z,98160.64
2018-10-03T09:42:50.251Z,98161.39
2018-10-03T09:45:18.840Z,98161.83
2018-10-03T09:47:47.481Z,98165.97
2018-10-03T09:50:16.088Z,98158.52
2018-10-03T09:52:44.663Z,98175.44
2018-10-03T09:55:13.384Z,98175.98
2018-10-03T09:57:42.005Z,98172.27
2018-10-03T10:00:10.630Z,98174.41
2018-10-03T10:02:39.275Z,98184.17
2018-10-03T10:05:07.895Z,98175.20
2018-10-03T10:07:36.484Z,98174.56
2018-10-03T10:10:05.152Z,98172.61
2018-10-03T10:12:33.719Z,98175.05
2018-10-03T10:15:02.288Z,98173.83
2018-10-03T10:17:30.952Z,98175.73
2018-10-03T10:19:59.603Z,98178.71
2018-10-03T10:22:28.192Z,98184.23
2018-10-03T10:24:56.822Z,98183.50
2018-10-03T10:27:25.447Z,98181.34
2018-10-03T10:29:54.027Z,98188.19
2018-10-03T10:32:23.149Z,98191.22
2018-10-03T10:34:51.632Z,98195.02
2018-10-03T10:37:20.204Z,98196.09
2018-10-03T10:39:49.100Z,98198.48
2018-10-03T10:42:17.680Z,98193.47
2018-10-03T10:44:46.248Z,98194.16
2018-10-03T10:47:14.952Z,98190.52
2018-10-03T10:49:43.537Z,98189.23
2018-10-03T10:52:12.106Z,98187.14
2018-10-03T10:54:40.720Z,98191.19
2018-10-03T10:57:09.328Z,98190.38
2018-10-03T10:59:38.017Z,98196.05
2018-10-03T11:02:06.621Z,98200.78
2018-10-03T11:04:35.244Z,98205.19
2018-10-03T11:07:04.316Z,98207.77
2018-10-03T11:09:33.049Z,98210.37
2018-10-03T11:12:01.629Z,98209.75
2018-10-03T11:14:30.240Z,98208.34
2018-10-03T11:16:58.984Z,98203.95
2018-10-03T11:19:27.607Z,98199.50
2018-10-03T11:21:56.187Z,98203.95
2018-10-03T11:24:25.134Z,98196.19
2018-10-03T11:26:53.597Z,98198.25
2018-10-03T11:29:22.192Z,98208.42
2018-10-03T11:31:51.368Z,98208.95
2018-10-03T11:34:19.981Z,98211.20
2018-10-03T11:36:48.615Z,98208.81
2018-10-03T11:39:17.289Z,98205.86
2018-10-03T11:41:45.876Z,98208.34
2018-10-03T11:44:14.496Z,98201.22
2018-10-03T11:46:43.131Z,98200.69
2018-10-03T11:49:11.710Z,98200.40
2018-10-03T11:51:40.336Z,98197.08
2018-10-03T11:54:09.493Z,98196.75
2018-10-03T11:56:38.112Z,98199.22
2018-10-03T11:59:06.696Z,98197.88
2018-10-03T12:01:35.647Z,98202.60
2018-10-03T12:04:04.253Z,98201.30
2018-10-03T12:06:32.877Z,98201.72
2018-10-03T12:09:01.915Z,98202.66
2018-10-03T12:11:30.519Z,98204.06
2018-10-03T12:13:59.116Z,98204.04
2018-10-03T12:16:27.816Z,98201.16
2018-10-03T12:18:56.432Z,98199.52
2018-10-03T12:21:24.979Z,98195.49
2018-10-03T12:23:53.673Z,98195.23
2018-10-03T12:26:22.280Z,98194.55
2018-10-03T12:28:50.876Z,98196.30
2018-10-03T12:31:19.544Z,98200.88
2018-10-03T12:33:48.253Z,98203.13
2018-10-03T12:36:17.558Z,98203.77
2018-10-03T12:38:46.299Z,98199.56
2018-10-03T12:41:14.917Z,98205.17
2018-10-03T12:43:43.504Z,98205.22
2018-10-03T12:46:12.125Z,98210.06
2018-10-03T12:48:40.703Z,98217.22
2018-10-03T12:51:09.297Z,98219.97
2018-10-03T12:53:38.667Z,98218.98
2018-10-03T12:56:07.288Z,98222.69
2018-10-03T12:58:35.951Z,98213.83
2018-10-03T13:01:04.751Z,98220.41
2018-10-03T13:03:33.886Z,98215.70
2018-10-03T13:06:02.460Z,98209.00
2018-10-03T13:08:31.078Z,98210.33
2018-10-03T13:10:59.665Z,98211.77
2018-10-03T13:13:28.247Z,98209.04
2018-10-03T13:15:56.999Z,98206.56
2018-10-03T13:18:25.588Z,98202.20
2018-10-03T13:20:54.171Z,98202.44
2018-10-03T13:23:23.108Z,98202.59
2018-10-03T13:25:51.708Z,98203.28
2018-10-03T13:28:20.300Z,98200.25
2018-10-03T13:30:49.000Z,98207.22
2018-10-03T13:33:17.611Z,98200.53
2018-10-03T13:35:46.210Z,98197.08
2018-10-03T13:38:14.932Z,98205.05
2018-10-03T13:40:43.568Z,98208.75
2018-10-03T13:43:12.135Z,98206.09
2018-10-03T13:45:41.114Z,98206.09
2018-10-03T13:48:09.704Z,98210.27
2018-10-03T13:50:38.312Z,98213.80
2018-10-03T13:53:06.994Z,98208.88
2018-10-03T13:55:35.576Z,98205.37
2018-10-03T13:58:04.370Z,98205.41
2018-10-03T14:00:33.143Z,98205.06
2018-10-03T14:03:01.792Z,98205.94
2018-10-03T14:05:30.363Z,98202.68
2018-10-03T14:07:59.068Z,98195.92
2018-10-03T14:10:27.654Z,98198.08
2018-10-03T14:12:56.229Z,98205.91
2018-10-03T14:15:25.238Z,98197.22
2018-10-03T14:17:53.839Z,98197.51
2018-10-03T14:20:22.455Z,98193.02
2018-10-03T14:22:51.282Z,98193.48
2018-10-03T14:25:19.920Z,98198.98
2018-10-03T14:27:48.488Z,98197.23
2018-10-03T14:30:17.997Z,98204.76
2018-10-03T14:32:46.659Z,98195.14
2018-10-03T14:35:16.328Z,98185.48
2018-10-03T14:37:44.964Z,98183.59
2018-10-03T14:40:13.618Z,98187.22
2018-10-03T14:42:42.220Z,98186.91
2018-10-03T14:45:11.273Z,98184.79
2018-10-03T14:47:41.219Z,98183.38
2018-10-03T14:50:11.204Z,98182.67
2018-10-03T14:52:40.611Z,98190.91
2018-10-03T14:55:10.089Z,98193.66
2018-10-03T14:57:38.837Z,98185.84
2018-10-03T15:00:09.749Z,98189.39
2018-10-03T15:02:38.565Z,98197.18
2018-10-03T15:05:08.392Z,98199.06
2018-10-03T15:07:37.107Z,98200.81
2018-10-03T15:10:07.408Z,98196.14
2018-10-03T15:12:36.166Z,98199.12
2018-10-03T15:15:06.736Z,98200.14
2018-10-03T15:17:36.585Z,98196.40
2018-10-03T15:20:06.704Z,98196.70
2018-10-03T15:22:37.112Z,98199.70
2018-10-03T15:25:05.751Z,98197.82
2018-10-03T15:27:34.576Z,98196.89
2018-10-03T15:30:03.876Z,98199.78
2018-10-03T15:32:33.104Z,98197.97
2018-10-03T15:35:03.417Z,98200.75
2018-10-03T15:37:33.389Z,98211.68
2018-10-03T15:40:03.747Z,98201.38
2018-10-03T15:42:33.584Z,98209.50
2018-10-03T15:45:03.413Z,98208.07
2018-10-03T15:47:33.308Z,98207.78
2018-10-03T15:50:03.576Z,98209.06
2018-10-03T15:52:34.396Z,98214.62
2018-10-03T15:55:05.239Z,98215.08
2018-10-03T15:57:35.112Z,98218.78
2018-10-03T16:00:04.656Z,98219.97
2018-10-03T16:02:34.889Z,98216.22
2018-10-03T16:05:03.728Z,98219.91
2018-10-03T16:07:32.362Z,98224.36
2018-10-03T16:10:01.047Z,98226.98
2018-10-03T16:12:29.635Z,98231.80
2018-10-03T16:14:58.204Z,98227.42
2018-10-03T16:17:26.811Z,98232.19
2018-10-03T16:19:55.392Z,98237.37
2018-10-03T16:22:24.040Z,98236.38
2018-10-03T16:24:52.656Z,98230.42
2018-10-03T16:27:21.263Z,98238.28
2018-10-03T16:29:49.840Z,98239.71
2018-10-03T16:32:18.539Z,98243.75
2018-10-03T16:34:47.130Z,98241.58
2018-10-03T16:37:15.748Z,98247.15
2018-10-03T16:39:44.403Z,98256.50
2018-10-03T16:42:12.986Z,98243.89
2018-10-03T16:44:41.592Z,98250.92
2018-10-03T16:47:11.085Z,98253.19
2018-10-03T16:49:39.829Z,98251.84
2018-10-03T16:52:08.460Z,98262.01
2018-10-03T16:54:37.088Z,98263.98
2018-10-03T16:57:06.774Z,98265.78
2018-10-03T16:59:35.540Z,98269.15
2018-10-03T17:02:04.248Z,98272.77
2018-10-03T17:04:32.832Z,98272.28
2018-10-03T17:07:01.487Z,98272.20
2018-10-03T17:09:30.471Z,98274.17
2018-10-03T17:11:59.048Z,98273.22
2018-10-03T17:14:35.516Z,98280.10
2018-10-03T17:17:04.815Z,98275.82
2018-10-03T17:19:33.971Z,98281.38
2018-10-03T17:22:04.132Z,98281.91
2018-10-03T17:24:34.303Z,98287.77
2018-10-03T17:27:02.936Z,98291.43
2018-10-03T17:29:31.514Z,98286.09
2018-10-03T17:32:00.315Z,98288.38
2018-10-03T17:34:28.908Z,98295.61
2018-10-03T17:36:57.592Z,98296.44
2018-10-03T17:39:27.128Z,98294.91
2018-10-03T17:41:55.719Z,98301.13
2018-10-03T17:44:24.951Z,98294.23
2018-10-03T17:46:55.409Z,98295.89
2018-10-03T17:49:24.008Z,98301.33
2018-10-03T17:51:52.669Z,98289.13
2018-10-03T17:54:22.189Z,98301.39
2018-10-03T17:56:50.751Z,98299.89
2018-10-03T17:59:19.327Z,98298.02
2018-10-03T18:01:50.079Z,98294.55
2018-10-03T18:04:18.868Z,98294.55
2018-10-03T18:06:47.405Z,98294.11
2018-10-03T18:09:16.157Z,98295.11
2018-10-03T18:11:44.774Z,98305.95
2018-10-03T18:14:13.348Z,98303.52
2018-10-03T18:16:41.988Z,98304.48
2018-10-03T18:19:10.572Z,98307.78
2018-10-03T18:21:39.148Z,98303.47
2018-10-03T18:24:07.926Z,98315.02
2018-10-03T18:26:36.503Z,98318.09
2018-10-03T18:29:05.208Z,98317.26
2018-10-03T18:31:34.006Z,98313.73
2018-10-03T18:34:02.588Z,98324.05
2018-10-03T18:36:31.184Z,98324.59
2018-10-03T18:38:59.902Z,98328.25
2018-10-03T18:41:28.588Z,98332.26
2018-10-03T18:43:57.190Z,98332.37
2018-10-03T18:46:25.907Z,98323.23
2018-10-03T18:48:54.483Z,98329.20
2018-10-03T18:51:23.077Z,98337.29
2018-10-03T18:53:52.254Z,98332.26
2018-10-03T18:56:20.891Z,98333.53
2018-10-03T18:58:49.540Z,98331.09
2018-10-03T19:01:18.460Z,98330.69
2018-10-03T19:03:47.364Z,98334.63
2018-10-03T19:06:16.007Z,98334.80
2018-10-03T19:08:44.712Z,98343.88
2018-10-03T19:11:13.324Z,98341.09
2018-10-03T19:13:42.125Z,98347.98
2018-10-03T19:16:10.731Z,98344.06
2018-10-03T19:18:39.300Z,98348.53
2018-10-03T19:21:07.913Z,98347.44
2018-10-03T19:23:36.620Z,98354.34
2018-10-03T19:26:05.277Z,98351.12
2018-10-03T19:28:33.851Z,98347.67
2018-10-03T19:31:02.663Z,98346.06
2018-10-03T19:33:31.319Z,98355.15
2018-10-03T19:36:00.179Z,98354.41
2018-10-03T19:38:28.833Z,98357.02
2018-10-03T19:40:57.416Z,98361.05
2018-10-03T19:43:26.029Z,98362.25
2018-10-03T19:45:55.176Z,98362.22
2018-10-03T19:48:23.819Z,98363.83
2018-10-03T19:50:53.249Z,98363.48
2018-10-03T19:53:27.819Z,98369.05
2018-10-03T19:55:57.620Z,98365.67
2018-10-03T19:58:26.203Z,98364.27
2018-10-03T20:00:54.930Z,98370.44
2018-10-03T20:03:24.980Z,98365.84
2018-10-03T20:05:53.645Z,98372.14
2018-10-03T20:08:23.428Z,98370.83
2018-10-03T20:10:52.259Z,98365.57
2018-10-03T20:13:21.308Z,98366.01
2018-10-03T20:15:50.741Z,98370.16
2018-10-03T20:18:20.053Z,98370.97
2018-10-03T20:20:49.493Z,98371.61
2018-10-03T20:23:18.453Z,98374.52
2018-10-03T20:25:47.496Z,98375.02
2018-10-03T20:28:16.388Z,98370.94
2018-10-03T20:30:45.596Z,98373.88
2018-10-03T20:33:14.328Z,98376.18
2018-10-03T20:35:42.965Z,98381.57
2018-10-03T20:38:11.623Z,98382.63
2018-10-03T20:40:40.230Z,98367.47
2018-10-03T20:43:08.875Z,98372.77
2018-10-03T20:45:37.467Z,98379.36
2018-10-03T20:48:06.314Z,98374.80
2018-10-03T20:50:34.956Z,98371.48
2018-10-03T20:53:03.675Z,98372.07
2018-10-03T20:55:32.268Z,98371.58
2018-10-03T20:58:00.848Z,98382.69
2018-10-03T21:00:29.801Z,98375.98
2018-10-03T21:02:58.658Z,98370.55
2018-10-03T21:05:27.231Z,98380.55
2018-10-03T21:07:56.229Z,98376.23
2018-10-03T21:10:24.812Z,98378.03
2018-10-03T21:12:53.418Z,98383.50
2018-10-03T21:15:22.394Z,98389.23
2018-10-03T21:17:50.988Z,98386.88
2018-10-03T21:20:19.606Z,98388.74
2018-10-03T21:22:48.361Z,98389.33
2018-10-03T21:25:17.047Z,98387.69
2018-10-03T21:27:45.649Z,98395.88
2018-10-03T21:30:14.703Z,98391.69
2018-10-03T21:32:43.308Z,98391.56
2018-10-03T21:35:11.908Z,98393.15
2018-10-03T21:37:41.239Z,98399.86
2018-10-03T21:40:09.963Z,98398.27
2018-10-03T21:42:38.597Z,98399.05
2018-10-03T21:45:07.896Z,98397.68
2018-10-03T21:47:36.577Z,98397.99
2018-10-03T21:50:05.471Z,98393.74
2018-10-03T21:52:34.107Z,98400.47
2018-10-03T21:55:03.081Z,98399.67
2018-10-03T21:57:32.091Z,98393.86
2018-10-03T22:00:00.800Z,98390.52
2018-10-03T22:02:29.503Z,98382.29
2018-10-03T22:04:58.274Z,98389.95
2018-10-03T22:07:26.908Z,98393.30
2018-10-03T22:09:55.507Z,98389.23
2018-10-03T22:12:24.097Z,98392.59
2018-10-03T22:14:52.851Z,98385.23
2018-10-03T22:17:23.379Z,98388.80
2018-10-03T22:19:53.028Z,98384.29
2018-10-03T22:22:21.649Z,98384.72
2018-10-03T22:24:50.297Z,98388.55
2018-10-03T22:27:19.056Z,98383.17
2018-10-03T22:29:48.501Z,98381.58
2018-10-03T22:32:17.230Z,98388.52
2018-10-03T22:34:46.073Z,98386.44
2018-10-03T22:37:14.702Z,98385.58
2018-10-03T22:39:43.332Z,98382.34
2018-10-03T22:42:12.407Z,98385.31
2018-10-03T22:44:41.016Z,98384.48
2018-10-03T22:47:09.636Z,98385.14
2018-10-03T22:49:38.348Z,98389.39
2018-10-03T22:52:07.068Z,98382.45
2018-10-03T22:54:35.779Z,98385.25
2018-10-03T22:57:04.816Z,98391.59
2018-10-03T22:59:33.492Z,98386.23
2018-10-03T23:02:02.080Z,98392.51
2018-10-03T23:04:30.768Z,98390.48
2018-10-03T23:06:59.336Z,98387.86
2018-10-03T23:09:27.935Z,98383.14
2018-10-03T23:11:56.616Z,98394.59
2018-10-03T23:14:25.214Z,98390.48
2018-10-03T23:16:53.891Z,98390.08
2018-10-03T23:19:22.572Z,98392.53
2018-10-03T23:21:51.188Z,98384.21
2018-10-03T23:24:19.776Z,98386.78
2018-10-03T23:26:48.452Z,98392.77
2018-10-03T23:29:17.020Z,98387.84
2018-10-03T23:31:45.728Z,98389.20
2018-10-03T23:34:14.366Z,98389.20
2018-10-03T23:36:43.048Z,98395.58
2018-10-03T23:39:12.740Z,98393.47
2018-10-03T23:41:41.600Z,98397.91
2018-10-03T23:44:11.417Z,98397.51
2018-10-03T23:46:40.068Z,98395.42
2018-10-03T23:49:08.659Z,98396.34
2018-10-03T23:51:37.236Z,98394.04
2018-10-03T23:54:05.805Z,98398.66
2018-10-03T23:56:34.524Z,98401.20
2018-10-03T23:59:03.102Z,98399.39
